createdAt,value
2023-01-29T00:00:12.602Z,33.55
2023-01-29T00:02:39.886Z,32.20
2023-01-29T00:05:26.128Z,30.33
2023-01-29T00:07:55.794Z,31.35
2023-01-29T00:10:24.728Z,32.20
2023-01-29T00:12:52.705Z,32.38
2023-01-29T00:15:20.744Z,32.47
2023-01-29T00:17:48.079Z,32.33
2023-01-29T00:20:15.946Z,30.85
2023-01-29T00:22:43.565Z,31.65
2023-01-29T00:25:12.053Z,30.33
2023-01-29T00:27:39.322Z,29.85
2023-01-29T00:30:12.939Z,30.80
2023-01-29T00:32:41.119Z,30.88
2023-01-29T00:35:09.496Z,33.05
2023-01-29T00:37:37.428Z,31.30
2023-01-29T00:40:05.872Z,28.83
2023-01-29T00:42:51.891Z,30.52
2023-01-29T00:45:19.125Z,29.80
2023-01-29T00:47:46.392Z,32.90
2023-01-29T00:50:14.166Z,29.50
2023-01-29T00:52:41.956Z,28.75
2023-01-29T00:55:11.841Z,29.55
2023-01-29T00:57:39.276Z,30.20
2023-01-29T01:00:09.890Z,30.00
2023-01-29T01:02:56.174Z,29.77
2023-01-29T01:05:23.760Z,29.15
2023-01-29T01:07:53.591Z,28.67
2023-01-29T01:10:27.932Z,29.33
2023-01-29T01:15:30.376Z,29.55
2023-01-29T01:17:59.833Z,28.67
2023-01-29T01:20:29.520Z,28.65
2023-01-29T01:22:56.989Z,30.63
2023-01-29T01:25:26.314Z,28.80
2023-01-29T01:27:58.111Z,30.30
2023-01-29T01:30:26.395Z,30.10
2023-01-29T01:32:54.068Z,29.83
2023-01-29T01:35:21.401Z,28.92
2023-01-29T01:37:49.656Z,28.75
2023-01-29T01:40:23.535Z,29.50
2023-01-29T01:42:57.000Z,29.02
2023-01-29T01:45:27.089Z,30.13
2023-01-29T01:48:17.454Z,30.73
2023-01-29T01:51:03.211Z,30.38
2023-01-29T01:53:38.730Z,31.05
2023-01-29T01:56:11.213Z,29.45
2023-01-29T01:58:43.777Z,30.23
2023-01-29T02:01:12.732Z,30.48
2023-01-29T02:04:08.294Z,30.42
2023-01-29T02:06:57.748Z,27.85
2023-01-29T02:09:59.323Z,27.60
2023-01-29T02:12:28.709Z,28.17
2023-01-29T02:14:56.935Z,27.85
2023-01-29T02:17:24.356Z,29.95
2023-01-29T02:19:57.601Z,28.85
2023-01-29T02:22:56.138Z,28.52
2023-01-29T02:25:43.198Z,28.70
2023-01-29T02:28:49.069Z,26.83
2023-01-29T02:31:45.624Z,26.75
2023-01-29T02:34:52.986Z,27.73
2023-01-29T02:37:31.885Z,26.70
2023-01-29T02:40:12.208Z,27.58
2023-01-29T02:42:52.833Z,27.13
2023-01-29T02:45:32.673Z,27.05
2023-01-29T02:48:02.324Z,27.20
2023-01-29T02:50:51.929Z,27.75
2023-01-29T02:53:25.909Z,27.83
2023-01-29T02:55:59.176Z,26.98
2023-01-29T02:58:42.586Z,27.65
2023-01-29T03:01:36.525Z,24.85
2023-01-29T03:04:12.486Z,26.23
2023-01-29T03:06:44.679Z,25.40
2023-01-29T03:09:41.780Z,25.77
2023-01-29T03:12:36.821Z,25.85
2023-01-29T03:15:12.526Z,26.70
2023-01-29T03:17:58.196Z,26.88
2023-01-29T03:20:32.731Z,29.30
2023-01-29T03:23:11.017Z,24.77
2023-01-29T03:25:59.782Z,24.55
2023-01-29T03:28:50.326Z,25.60
2023-01-29T03:31:37.290Z,25.20
2023-01-29T03:34:16.378Z,25.13
2023-01-29T03:36:57.658Z,26.20
2023-01-29T03:39:28.575Z,24.75
2023-01-29T03:42:42.554Z,25.05
2023-01-29T03:45:27.935Z,24.63
2023-01-29T03:48:16.363Z,24.67
2023-01-29T03:51:17.036Z,24.38
2023-01-29T03:54:08.296Z,24.50
2023-01-29T03:57:07.068Z,27.45
2023-01-29T03:59:58.773Z,25.38
2023-01-29T04:03:04.391Z,24.92
2023-01-29T04:05:43.477Z,24.30
2023-01-29T04:10:54.752Z,23.45
2023-01-29T04:13:24.080Z,27.92
2023-01-29T04:15:58.021Z,27.63
2023-01-29T04:18:48.435Z,27.90
2023-01-29T04:21:17.461Z,29.10
2023-01-29T04:23:44.868Z,27.65
2023-01-29T04:26:27.263Z,28.02
2023-01-29T04:29:30.245Z,28.40
2023-01-29T04:32:30.166Z,26.90
2023-01-29T04:35:15.551Z,26.55
2023-01-29T04:37:48.250Z,27.23
2023-01-29T04:40:15.958Z,27.85
2023-01-29T04:43:09.368Z,27.95
2023-01-29T04:46:01.620Z,28.90
2023-01-29T04:48:40.350Z,28.38
2023-01-29T04:51:16.870Z,30.02
2023-01-29T04:53:57.116Z,28.20
2023-01-29T04:56:37.072Z,27.90
2023-01-29T04:59:17.813Z,28.67
2023-01-29T05:01:45.584Z,29.23
2023-01-29T05:04:16.594Z,30.30
2023-01-29T05:06:46.647Z,30.50
2023-01-29T05:09:15.721Z,29.73
2023-01-29T05:11:45.164Z,30.35
2023-01-29T05:14:15.465Z,29.98
2023-01-29T05:16:49.506Z,29.88
2023-01-29T05:19:17.606Z,30.67
2023-01-29T05:21:48.799Z,31.35
2023-01-29T05:24:22.722Z,31.20
2023-01-29T05:27:11.115Z,33.33
2023-01-29T05:29:42.582Z,31.38
2023-01-29T05:32:09.868Z,32.78
2023-01-29T05:34:37.233Z,31.02
2023-01-29T05:37:04.977Z,30.90
2023-01-29T05:39:32.348Z,31.27
2023-01-29T05:41:59.828Z,31.65
2023-01-29T05:44:27.138Z,31.20
2023-01-29T05:46:54.477Z,32.25
2023-01-29T05:49:22.503Z,30.58
2023-01-29T05:51:49.842Z,33.13
2023-01-29T05:54:17.140Z,31.88
2023-01-29T05:56:44.404Z,32.53
2023-01-29T05:59:11.741Z,32.67
2023-01-29T06:01:39.313Z,31.73
2023-01-29T06:04:06.644Z,32.15
2023-01-29T06:06:33.984Z,32.47
2023-01-29T06:09:01.280Z,34.78
2023-01-29T06:11:29.086Z,32.35
2023-01-29T06:13:56.306Z,31.00
2023-01-29T06:16:23.661Z,31.73
2023-01-29T06:18:51.054Z,32.30
2023-01-29T06:21:20.112Z,31.45
2023-01-29T06:23:47.624Z,31.70
2023-01-29T06:26:16.097Z,31.70
2023-01-29T06:28:45.100Z,30.95
2023-01-29T06:31:30.448Z,29.67
2023-01-29T06:33:59.671Z,31.55
2023-01-29T06:36:27.175Z,32.90
2023-01-29T06:38:54.491Z,30.52
2023-01-29T06:41:25.193Z,31.60
2023-01-29T06:43:52.823Z,32.78
2023-01-29T06:46:20.447Z,32.28
2023-01-29T06:48:47.795Z,29.48
2023-01-29T06:51:15.056Z,32.17
2023-01-29T06:53:44.104Z,31.95
2023-01-29T06:56:13.099Z,30.08
2023-01-29T06:58:40.367Z,30.73
2023-01-29T07:01:10.180Z,30.85
2023-01-29T07:03:37.932Z,31.13
2023-01-29T07:06:06.052Z,31.08
2023-01-29T07:08:36.880Z,31.50
2023-01-29T07:11:05.299Z,31.83
2023-01-29T07:13:33.440Z,30.08
2023-01-29T07:16:02.008Z,31.15
2023-01-29T07:18:30.895Z,31.35
2023-01-29T07:20:58.517Z,32.08
2023-01-29T07:23:25.904Z,31.70
2023-01-29T07:25:53.401Z,30.80
2023-01-29T07:28:20.860Z,29.85
2023-01-29T07:30:48.264Z,32.20
2023-01-29T07:33:15.605Z,28.98
2023-01-29T07:35:43.702Z,30.02
2023-01-29T07:38:11.773Z,29.67
2023-01-29T07:40:39.128Z,30.33
2023-01-29T07:43:08.173Z,29.35
2023-01-29T07:45:37.425Z,30.08
2023-01-29T07:48:06.736Z,30.85
2023-01-29T07:50:35.070Z,31.48
2023-01-29T07:53:02.873Z,31.08
2023-01-29T07:55:30.958Z,29.48
2023-01-29T07:58:00.092Z,30.58
2023-01-29T08:00:28.364Z,30.02
2023-01-29T08:03:06.542Z,29.83
2023-01-29T08:05:34.218Z,30.52
2023-01-29T08:08:06.946Z,28.92
2023-01-29T08:10:36.418Z,30.75
2023-01-29T08:13:05.684Z,29.08
2023-01-29T08:15:33.518Z,30.75
2023-01-29T08:18:04.463Z,28.77
2023-01-29T08:20:31.795Z,30.38
2023-01-29T08:23:13.228Z,28.48
2023-01-29T08:25:40.574Z,28.90
2023-01-29T08:28:08.041Z,30.85
2023-01-29T08:30:35.843Z,29.27
2023-01-29T08:33:04.229Z,29.33
2023-01-29T08:35:31.524Z,31.45
2023-01-29T08:38:00.825Z,29.52
2023-01-29T08:40:31.659Z,28.75
2023-01-29T08:43:02.243Z,30.45
2023-01-29T08:45:33.652Z,30.00
2023-01-29T08:48:01.721Z,28.25
2023-01-29T08:50:33.009Z,29.75
2023-01-29T08:53:01.634Z,29.83
2023-01-29T08:55:29.552Z,30.10
2023-01-29T08:57:59.546Z,29.23
2023-01-29T09:00:27.002Z,30.63
2023-01-29T09:02:54.243Z,29.15
2023-01-29T09:05:21.550Z,28.95
2023-01-29T09:07:48.798Z,28.42
2023-01-29T09:10:16.614Z,28.65
2023-01-29T09:12:43.950Z,27.65
2023-01-29T09:15:11.900Z,27.65
2023-01-29T09:17:39.222Z,28.15
2023-01-29T09:20:07.106Z,29.17
2023-01-29T09:22:34.596Z,28.92
2023-01-29T09:25:02.505Z,28.42
2023-01-29T09:27:29.878Z,26.63
2023-01-29T09:29:57.151Z,28.52
2023-01-29T09:32:52.077Z,29.85
2023-01-29T09:35:11.860Z,27.88
2023-01-29T09:37:39.215Z,28.98
2023-01-29T09:40:07.406Z,26.40
2023-01-29T09:43:06.657Z,27.85
2023-01-29T09:45:35.300Z,29.08
2023-01-29T09:48:05.627Z,28.05
2023-01-29T09:50:41.447Z,27.17
2023-01-29T09:53:29.446Z,27.58
2023-01-29T09:56:04.850Z,28.58
2023-01-29T09:58:35.873Z,28.52
2023-01-29T10:01:03.121Z,27.08
2023-01-29T10:03:55.889Z,26.88
2023-01-29T10:06:37.144Z,27.65
2023-01-29T10:09:34.864Z,26.88
2023-01-29T10:12:27.152Z,26.23
2023-01-29T10:15:03.904Z,26.35
2023-01-29T10:17:55.731Z,27.65
2023-01-29T10:21:13.216Z,25.13
2023-01-29T10:23:50.381Z,26.23
2023-01-29T10:26:21.049Z,25.20
2023-01-29T10:28:50.823Z,26.77
2023-01-29T10:31:36.418Z,26.13
2023-01-29T10:34:12.235Z,25.23
2023-01-29T10:36:46.283Z,26.10
2023-01-29T10:39:22.084Z,26.42
2023-01-29T10:42:27.780Z,25.50
2023-01-29T10:47:51.495Z,24.85
2023-01-29T10:50:40.547Z,24.55
2023-01-29T10:53:21.137Z,23.95
2023-01-29T10:55:54.765Z,24.92
2023-01-29T10:58:48.939Z,22.80
2023-01-29T11:01:16.414Z,26.48
2023-01-29T11:03:43.816Z,25.77
2023-01-29T11:06:20.228Z,25.25
2023-01-29T11:08:56.585Z,25.48
2023-01-29T11:11:33.583Z,24.42
2023-01-29T11:14:08.872Z,25.52
2023-01-29T11:16:46.848Z,24.73
2023-01-29T11:19:15.145Z,25.17
2023-01-29T11:21:57.063Z,25.85
2023-01-29T11:24:25.243Z,25.05
2023-01-29T11:26:57.477Z,24.05
2023-01-29T11:29:27.883Z,26.13
2023-01-29T11:31:57.448Z,25.92
2023-01-29T11:34:27.635Z,26.45
2023-01-29T11:37:03.284Z,26.42
2023-01-29T11:39:32.435Z,26.33
2023-01-29T11:42:04.746Z,27.42
2023-01-29T11:44:42.267Z,24.25
2023-01-29T11:47:25.560Z,26.00
2023-01-29T11:49:54.284Z,23.95
2023-01-29T11:52:24.520Z,24.63
2023-01-29T11:55:05.973Z,24.55
2023-01-29T11:57:38.735Z,23.42
2023-01-29T12:00:21.907Z,23.70
2023-01-29T12:02:55.472Z,21.92
2023-01-29T12:05:25.068Z,22.85
2023-01-29T12:07:55.506Z,22.38
2023-01-29T12:10:34.170Z,22.40
2023-01-29T12:13:15.660Z,21.90
2023-01-29T12:15:43.437Z,22.88
2023-01-29T12:18:32.167Z,22.77
2023-01-29T12:21:03.398Z,23.33
2023-01-29T12:24:22.214Z,22.65
2023-01-29T12:27:00.677Z,21.65
2023-01-29T12:29:53.820Z,22.55
2023-01-29T12:32:29.978Z,22.15
2023-01-29T12:35:17.487Z,24.33
2023-01-29T12:38:00.817Z,23.10
2023-01-29T12:40:48.217Z,23.10
2023-01-29T12:43:23.937Z,21.55
2023-01-29T12:45:55.137Z,21.60
2023-01-29T12:48:43.841Z,23.25
2023-01-29T12:51:16.841Z,20.27
2023-01-29T12:53:49.970Z,21.85
2023-01-29T12:56:41.090Z,23.02
2023-01-29T12:59:28.966Z,24.40
2023-01-29T13:02:06.657Z,22.67
2023-01-29T13:04:42.280Z,20.80
2023-01-29T13:07:28.280Z,20.02
2023-01-29T13:10:01.708Z,21.25
2023-01-29T13:12:31.016Z,20.30
2023-01-29T13:15:02.883Z,21.83
2023-01-29T13:17:47.844Z,21.83
2023-01-29T13:22:52.543Z,20.48
2023-01-29T13:25:20.995Z,20.98
2023-01-29T13:27:49.276Z,19.70
2023-01-29T13:30:29.165Z,20.33
2023-01-29T13:33:09.447Z,18.60
2023-01-29T13:35:42.970Z,19.88
2023-01-29T13:38:36.413Z,21.15
2023-01-29T13:41:08.659Z,20.33
2023-01-29T13:43:38.586Z,19.98
2023-01-29T13:46:13.877Z,21.13
2023-01-29T13:48:43.758Z,19.05
2023-01-29T13:51:17.006Z,20.27
2023-01-29T13:53:57.125Z,19.50
2023-01-29T13:56:33.223Z,20.08
2023-01-29T13:59:05.403Z,20.33
2023-01-29T14:01:48.096Z,20.45
2023-01-29T14:04:29.134Z,20.45
2023-01-29T14:07:06.089Z,19.83
2023-01-29T14:09:39.703Z,19.55
2023-01-29T14:12:33.372Z,18.90
2023-01-29T14:15:23.788Z,19.35
2023-01-29T14:18:19.630Z,20.35
2023-01-29T14:21:05.886Z,19.52
2023-01-29T14:23:41.486Z,19.80
2023-01-29T14:26:34.396Z,19.08
2023-01-29T14:29:05.241Z,19.33
2023-01-29T14:31:37.660Z,18.23
2023-01-29T14:34:13.449Z,19.45
2023-01-29T14:36:46.285Z,18.55
2023-01-29T14:39:25.744Z,20.05
2023-01-29T14:41:53.374Z,20.45
2023-01-29T14:44:45.775Z,18.98
2023-01-29T14:47:36.324Z,19.23
2023-01-29T14:50:29.502Z,20.02
2023-01-29T14:53:25.430Z,18.23
2023-01-29T14:56:04.068Z,20.17
2023-01-29T14:58:41.373Z,19.00
2023-01-29T15:01:22.263Z,19.90
2023-01-29T15:03:58.637Z,19.77
2023-01-29T15:06:45.807Z,21.45
2023-01-29T15:09:36.716Z,20.67
2023-01-29T15:12:17.349Z,19.90
2023-01-29T15:15:02.041Z,20.85
2023-01-29T15:17:48.385Z,19.70
2023-01-29T15:20:28.588Z,19.75
2023-01-29T15:22:56.028Z,19.20
2023-01-29T15:25:23.959Z,20.35
2023-01-29T15:27:51.480Z,21.15
2023-01-29T15:30:23.006Z,20.85
2023-01-29T15:32:50.744Z,20.50
2023-01-29T15:35:36.383Z,21.50
2023-01-29T15:38:18.305Z,20.75
2023-01-29T15:40:56.679Z,22.52
2023-01-29T15:43:29.692Z,21.02
2023-01-29T15:46:01.484Z,22.65
2023-01-29T15:48:37.679Z,21.73
2023-01-29T15:51:11.962Z,22.58
2023-01-29T15:53:48.483Z,21.23
2023-01-29T15:56:26.079Z,21.65
2023-01-29T15:58:55.038Z,20.75
2023-01-29T16:01:22.410Z,22.58
2023-01-29T16:03:50.639Z,21.30
2023-01-29T16:06:19.035Z,22.63
2023-01-29T16:08:54.489Z,23.38
2023-01-29T16:11:22.337Z,22.35
2023-01-29T16:13:50.787Z,22.23
2023-01-29T16:16:25.755Z,21.75
2023-01-29T16:19:00.418Z,20.92
2023-01-29T16:21:39.829Z,19.92
2023-01-29T16:24:13.952Z,20.52
2023-01-29T16:26:47.507Z,20.60
2023-01-29T16:29:19.157Z,21.85
2023-01-29T16:31:48.395Z,21.52
2023-01-29T16:34:26.624Z,23.58
2023-01-29T16:36:55.042Z,21.45
2023-01-29T16:39:27.602Z,21.55
2023-01-29T16:42:21.458Z,22.45
2023-01-29T16:45:24.975Z,21.63
2023-01-29T16:48:30.542Z,21.02
2023-01-29T16:51:14.270Z,21.13
2023-01-29T16:53:56.250Z,22.08
2023-01-29T16:56:24.738Z,21.42
2023-01-29T16:58:53.902Z,21.58
2023-01-29T17:01:24.389Z,22.13
2023-01-29T17:03:59.583Z,22.85
2023-01-29T17:06:27.723Z,22.42
2023-01-29T17:08:55.449Z,21.88
2023-01-29T17:11:31.662Z,22.90
2023-01-29T17:13:59.651Z,22.55
2023-01-29T17:16:33.117Z,22.67
2023-01-29T17:19:01.092Z,21.33
2023-01-29T17:21:31.630Z,22.30
2023-01-29T17:23:58.945Z,24.55
2023-01-29T17:26:26.358Z,23.98
2023-01-29T17:28:54.904Z,20.88
2023-01-29T17:31:22.353Z,21.80
2023-01-29T17:33:49.755Z,22.35
2023-01-29T17:36:18.044Z,22.73
2023-01-29T17:38:45.937Z,23.98
2023-01-29T17:41:26.824Z,23.08
2023-01-29T17:43:54.181Z,22.85
2023-01-29T17:46:22.685Z,23.02
2023-01-29T17:48:53.997Z,22.83
2023-01-29T17:51:23.443Z,22.25
2023-01-29T17:53:52.112Z,23.00
2023-01-29T17:56:27.768Z,21.77
2023-01-29T17:58:55.257Z,21.88
2023-01-29T18:01:22.624Z,25.17
2023-01-29T18:03:50.129Z,21.50
2023-01-29T18:06:27.947Z,21.88
2023-01-29T18:08:56.480Z,21.23
2023-01-29T18:11:24.218Z,21.65
2023-01-29T18:13:51.544Z,20.63
2023-01-29T18:16:21.590Z,22.88
2023-01-29T18:18:50.032Z,21.40
2023-01-29T18:21:17.519Z,20.60
2023-01-29T18:23:44.872Z,22.02
2023-01-29T18:26:13.153Z,19.83
2023-01-29T18:28:43.308Z,18.77
2023-01-29T18:31:13.045Z,20.48
2023-01-29T18:33:41.185Z,20.63
2023-01-29T18:36:08.812Z,20.52
2023-01-29T18:38:37.196Z,20.00
2023-01-29T18:41:12.530Z,21.33
2023-01-29T18:43:41.478Z,20.95
2023-01-29T18:46:09.386Z,19.58
2023-01-29T18:48:37.121Z,20.60
2023-01-29T18:51:04.881Z,19.90
2023-01-29T18:53:33.453Z,19.45
2023-01-29T18:56:05.765Z,19.63
2023-01-29T18:58:36.918Z,19.25
2023-01-29T19:01:10.080Z,19.05
2023-01-29T19:03:38.979Z,19.10
2023-01-29T19:06:08.549Z,18.52
2023-01-29T19:08:36.505Z,17.95
2023-01-29T19:11:07.978Z,19.83
2023-01-29T19:13:36.304Z,20.25
2023-01-29T19:16:07.692Z,18.83
2023-01-29T19:18:35.287Z,19.15
2023-01-29T19:21:07.577Z,18.50
2023-01-29T19:23:34.949Z,19.00
2023-01-29T19:26:02.457Z,18.67
2023-01-29T19:28:29.833Z,19.13
2023-01-29T19:30:58.270Z,18.58
2023-01-29T19:33:27.699Z,19.27
2023-01-29T19:36:01.314Z,18.65
2023-01-29T19:38:29.233Z,20.80
2023-01-29T19:40:56.529Z,21.25
2023-01-29T19:43:23.913Z,20.77
2023-01-29T19:46:01.217Z,21.02
2023-01-29T19:48:28.932Z,20.77
2023-01-29T19:51:00.595Z,20.25
2023-01-29T19:53:29.128Z,21.05
2023-01-29T19:56:02.410Z,19.80
2023-01-29T19:58:30.468Z,19.92
2023-01-29T20:00:59.353Z,20.42
2023-01-29T20:03:27.824Z,19.58
2023-01-29T20:06:05.727Z,19.63
2023-01-29T20:08:34.755Z,19.40
2023-01-29T20:11:02.667Z,18.35
2023-01-29T20:13:30.058Z,19.98
2023-01-29T20:15:57.520Z,20.38
2023-01-29T20:18:24.931Z,19.90
2023-01-29T20:20:53.085Z,19.73
2023-01-29T20:23:36.744Z,18.85
2023-01-29T20:26:06.051Z,20.30
2023-01-29T20:28:34.481Z,18.50
2023-01-29T20:31:02.324Z,20.70
2023-01-29T20:33:31.935Z,19.45
2023-01-29T20:36:04.388Z,20.10
2023-01-29T20:38:33.883Z,19.90
2023-01-29T20:41:14.022Z,19.85
2023-01-29T20:43:42.759Z,19.35
2023-01-29T20:46:10.500Z,20.88
2023-01-29T20:48:38.340Z,18.52
2023-01-29T20:51:07.847Z,19.90
2023-01-29T20:53:36.013Z,20.65
2023-01-29T20:56:04.631Z,19.88
2023-01-29T20:58:32.893Z,19.38
2023-01-29T21:01:00.455Z,19.10
2023-01-29T21:03:27.946Z,20.13
2023-01-29T21:05:58.956Z,19.85
2023-01-29T21:08:26.248Z,19.17
2023-01-29T21:10:53.754Z,19.83
2023-01-29T21:13:21.078Z,18.33
2023-01-29T21:15:50.824Z,19.10
2023-01-29T21:18:18.437Z,21.15
2023-01-29T21:20:46.102Z,18.42
2023-01-29T21:23:13.351Z,19.15
2023-01-29T21:25:41.198Z,18.85
2023-01-29T21:28:08.502Z,19.52
2023-01-29T21:30:35.784Z,19.23
2023-01-29T21:33:04.066Z,20.23
2023-01-29T21:35:31.848Z,19.85
2023-01-29T21:37:59.155Z,19.85
2023-01-29T21:40:26.557Z,19.27
2023-01-29T21:43:12.010Z,20.27
2023-01-29T21:45:40.471Z,18.60
2023-01-29T21:48:09.013Z,19.67
2023-01-29T21:50:37.262Z,19.48
2023-01-29T21:53:07.006Z,19.40
2023-01-29T21:55:34.370Z,19.90
2023-01-29T21:58:01.787Z,20.05
2023-01-29T22:00:29.056Z,21.67
2023-01-29T22:02:56.414Z,21.02
2023-01-29T22:05:23.903Z,20.02
2023-01-29T22:07:51.203Z,21.80
2023-01-29T22:10:19.905Z,23.25
2023-01-29T22:12:48.265Z,20.83
2023-01-29T22:15:15.961Z,20.90
2023-01-29T22:17:43.796Z,18.95
2023-01-29T22:20:13.734Z,20.60
2023-01-29T22:22:41.535Z,20.83
2023-01-29T22:25:09.451Z,21.25
2023-01-29T22:27:37.240Z,22.38
2023-01-29T22:30:05.535Z,21.33
2023-01-29T22:32:33.044Z,22.23
2023-01-29T22:35:00.352Z,22.45
2023-01-29T22:37:27.714Z,22.85
2023-01-29T22:39:55.034Z,21.90
2023-01-29T22:42:22.305Z,21.17
2023-01-29T22:44:49.594Z,22.38
2023-01-29T22:47:16.929Z,22.08
2023-01-29T22:49:45.543Z,23.75
2023-01-29T22:52:13.684Z,21.85
2023-01-29T22:54:42.717Z,23.33
2023-01-29T22:57:11.348Z,23.50
2023-01-29T22:59:38.948Z,23.05
2023-01-29T23:02:07.405Z,22.85
2023-01-29T23:04:34.835Z,23.77
2023-01-29T23:07:02.713Z,21.80
2023-01-29T23:09:29.961Z,23.33
2023-01-29T23:11:57.433Z,24.00
2023-01-29T23:14:24.654Z,21.23
2023-01-29T23:16:51.991Z,23.33
2023-01-29T23:19:19.382Z,22.08
2023-01-29T23:21:46.992Z,21.55
2023-01-29T23:24:14.586Z,21.17
2023-01-29T23:27:00.375Z,22.13
2023-01-29T23:29:27.687Z,21.40
2023-01-29T23:31:55.047Z,21.35
2023-01-29T23:34:22.532Z,21.98
2023-01-29T23:36:49.998Z,20.92
2023-01-29T23:39:17.407Z,21.05
2023-01-29T23:41:44.656Z,21.48
2023-01-29T23:44:12.116Z,21.65
2023-01-29T23:46:39.550Z,23.20
2023-01-29T23:49:07.099Z,21.02
2023-01-29T23:51:34.406Z,22.10
2023-01-29T23:54:01.653Z,20.80
2023-01-29T23:56:28.900Z,19.85
2023-01-29T23:58:57.351Z,21.75
